Log in Register

Login to your account

Username *
Password *
Remember Me

Create an account

Fields marked with an asterisk (*) are required.
Name *
Username *
Password *
Verify password *
Email *
Verify email *

Please enter the email address for your account. A verification code will be sent to you. Once you have received the verification code, you will be able to choose a new password for your account.

Nous contacter

 Téléphone : +33 (0)4 79 54 41 81

Coordonnées détaillées et accès : cliquez ici

 
LFLB °C
    Ferienhaus Ostsee
[source: ADDS]
METAR
LFLB 282200Z AUTO VRB02KT 9999 -RA FEW014/// SCT044/// BKN100/// ///TCU 12/12 Q1021 =
TAF LFLB 281400Z 2815/2915 18010KT 9999 BKN060 PROB40 TEMPO 2815/2819 SHRA SCT040TCU TEMPO 2901/2906 5000 -RA BECMG 2908/2910 36005KT
TAF
TAF LFLB 281400Z 2815/2915 18010KT 9999 BKN060 PROB40 TEMPO 2815/2819 SHRA SCT040TCU TEMPO 2901/2906 5000 -RA BECMG 2908/2910 36005KT =
SR / SS: 06:11 / 16:29 UTC (Lever/Coucher du soleil le 2020-10-28)
JSN Boot template designed by JoomlaShine.com